sensor_id;sensor_type;location;lat;lon;timestamp;P1;durP1;ratioP1;P2;durP2;ratioP2
49376;SDS011;35253;34.688;33.040;2024-03-06T00:01:58;35.58;;;6.82;;
49376;SDS011;35253;34.688;33.040;2024-03-06T00:04:23;39.53;;;7.47;;
49376;SDS011;35253;34.688;33.040;2024-03-06T00:06:49;35.72;;;8.65;;
49376;SDS011;35253;34.688;33.040;2024-03-06T00:09:17;32.30;;;5.07;;
49376;SDS011;35253;34.688;33.040;2024-03-06T00:11:44;44.97;;;10.15;;
49376;SDS011;35253;34.688;33.040;2024-03-06T00:14:10;34.95;;;6.47;;
49376;SDS011;35253;34.688;33.040;2024-03-06T00:16:37;35.28;;;6.05;;
49376;SDS011;35253;34.688;33.040;2024-03-06T00:19:03;32.35;;;8.02;;
49376;SDS011;35253;34.688;33.040;2024-03-06T00:21:29;36.92;;;7.45;;
49376;SDS011;35253;34.688;33.040;2024-03-06T00:23:55;44.05;;;11.23;;
49376;SDS011;35253;34.688;33.040;2024-03-06T00:26:21;38.08;;;6.97;;
49376;SDS011;35253;34.688;33.040;2024-03-06T00:28:47;29.55;;;7.15;;
49376;SDS011;35253;34.688;33.040;2024-03-06T00:31:13;23.40;;;4.45;;
49376;SDS011;35253;34.688;33.040;2024-03-06T00:33:39;31.88;;;5.25;;
49376;SDS011;35253;34.688;33.040;2024-03-06T00:36:05;25.25;;;5.88;;
49376;SDS011;35253;34.688;33.040;2024-03-06T00:38:31;44.47;;;13.02;;
49376;SDS011;35253;34.688;33.040;2024-03-06T00:40:57;35.15;;;6.22;;
49376;SDS011;35253;34.688;33.040;2024-03-06T00:43:23;40.10;;;8.93;;
49376;SDS011;35253;34.688;33.040;2024-03-06T00:45:49;29.77;;;7.28;;
49376;SDS011;35253;34.688;33.040;2024-03-06T00:48:14;51.13;;;9.13;;
49376;SDS011;35253;34.688;33.040;2024-03-06T00:50:40;37.72;;;7.25;;
49376;SDS011;35253;34.688;33.040;2024-03-06T00:53:06;41.70;;;5.05;;
49376;SDS011;35253;34.688;33.040;2024-03-06T00:55:32;38.20;;;8.75;;
49376;SDS011;35253;34.688;33.040;2024-03-06T00:57:57;32.00;;;7.85;;
49376;SDS011;35253;34.688;33.040;2024-03-06T01:00:23;40.75;;;6.18;;
49376;SDS011;35253;34.688;33.040;2024-03-06T01:02:49;36.28;;;5.90;;
49376;SDS011;35253;34.688;33.040;2024-03-06T01:05:14;34.75;;;6.55;;
49376;SDS011;35253;34.688;33.040;2024-03-06T01:07:41;28.38;;;5.95;;
49376;SDS011;35253;34.688;33.040;2024-03-06T01:10:07;22.60;;;3.33;;
49376;SDS011;35253;34.688;33.040;2024-03-06T01:12:34;23.60;;;3.97;;
49376;SDS011;35253;34.688;33.040;2024-03-06T01:15:00;23.70;;;4.57;;
49376;SDS011;35253;34.688;33.040;2024-03-06T01:17:26;27.08;;;4.90;;
49376;SDS011;35253;34.688;33.040;2024-03-06T01:19:52;30.48;;;5.47;;
49376;SDS011;35253;34.688;33.040;2024-03-06T01:22:18;27.63;;;5.38;;
49376;SDS011;35253;34.688;33.040;2024-03-06T01:24:44;20.17;;;3.42;;
49376;SDS011;35253;34.688;33.040;2024-03-06T01:27:09;18.08;;;2.88;;
49376;SDS011;35253;34.688;33.040;2024-03-06T01:29:35;15.57;;;2.70;;
49376;SDS011;35253;34.688;33.040;2024-03-06T01:32:01;25.20;;;3.47;;
49376;SDS011;35253;34.688;33.040;2024-03-06T01:34:27;13.38;;;2.83;;
49376;SDS011;35253;34.688;33.040;2024-03-06T01:36:53;21.77;;;3.00;;
49376;SDS011;35253;34.688;33.040;2024-03-06T01:39:18;17.45;;;2.80;;
49376;SDS011;35253;34.688;33.040;2024-03-06T01:41:45;20.42;;;3.42;;
49376;SDS011;35253;34.688;33.040;2024-03-06T01:44:14;23.23;;;3.67;;
49376;SDS011;35253;34.688;33.040;2024-03-06T01:46:41;21.48;;;3.35;;
49376;SDS011;35253;34.688;33.040;2024-03-06T01:49:07;18.60;;;3.28;;
49376;SDS011;35253;34.688;33.040;2024-03-06T01:51:34;16.33;;;2.30;;
49376;SDS011;35253;34.688;33.040;2024-03-06T01:54:01;19.42;;;2.47;;
49376;SDS011;35253;34.688;33.040;2024-03-06T01:56:29;14.93;;;2.33;;
49376;SDS011;35253;34.688;33.040;2024-03-06T01:58:59;14.90;;;1.92;;
49376;SDS011;35253;34.688;33.040;2024-03-06T02:01:25;11.02;;;2.83;;
49376;SDS011;35253;34.688;33.040;2024-03-06T02:03:51;15.35;;;2.03;;
49376;SDS011;35253;34.688;33.040;2024-03-06T02:06:17;13.32;;;2.38;;
49376;SDS011;35253;34.688;33.040;2024-03-06T02:08:45;18.73;;;4.18;;
49376;SDS011;35253;34.688;33.040;2024-03-06T02:11:11;12.68;;;2.40;;
49376;SDS011;35253;34.688;33.040;2024-03-06T02:13:38;16.27;;;2.13;;
49376;SDS011;35253;34.688;33.040;2024-03-06T02:16:04;10.98;;;2.10;;
49376;SDS011;35253;34.688;33.040;2024-03-06T02:18:30;10.70;;;2.00;;
49376;SDS011;35253;34.688;33.040;2024-03-06T02:20:56;9.05;;;2.05;;
49376;SDS011;35253;34.688;33.040;2024-03-06T02:23:22;9.30;;;1.98;;
49376;SDS011;35253;34.688;33.040;2024-03-06T02:25:48;16.15;;;2.13;;
49376;SDS011;35253;34.688;33.040;2024-03-06T02:28:15;15.65;;;2.03;;
49376;SDS011;35253;34.688;33.040;2024-03-06T02:30:42;15.18;;;2.03;;
49376;SDS011;35253;34.688;33.040;2024-03-06T02:33:08;17.70;;;4.88;;
49376;SDS011;35253;34.688;33.040;2024-03-06T02:35:34;21.42;;;3.08;;
49376;SDS011;35253;34.688;33.040;2024-03-06T02:38:01;13.30;;;2.45;;
49376;SDS011;35253;34.688;33.040;2024-03-06T02:40:32;13.85;;;2.63;;
49376;SDS011;35253;34.688;33.040;2024-03-06T02:42:58;14.32;;;2.50;;
49376;SDS011;35253;34.688;33.040;2024-03-06T02:45:24;13.95;;;2.35;;
49376;SDS011;35253;34.688;33.040;2024-03-06T02:47:49;12.77;;;2.67;;
49376;SDS011;35253;34.688;33.040;2024-03-06T02:50:15;10.57;;;2.65;;
49376;SDS011;35253;34.688;33.040;2024-03-06T02:52:41;13.30;;;2.45;;
49376;SDS011;35253;34.688;33.040;2024-03-06T02:55:06;8.15;;;1.50;;
49376;SDS011;35253;34.688;33.040;2024-03-06T02:57:32;15.32;;;2.78;;
49376;SDS011;35253;34.688;33.040;2024-03-06T02:59:59;13.50;;;1.70;;
49376;SDS011;35253;34.688;33.040;2024-03-06T03:02:25;17.75;;;3.05;;
49376;SDS011;35253;34.688;33.040;2024-03-06T03:04:51;13.23;;;1.73;;
49376;SDS011;35253;34.688;33.040;2024-03-06T03:07:18;15.63;;;2.50;;
49376;SDS011;35253;34.688;33.040;2024-03-06T03:09:46;11.98;;;1.83;;
49376;SDS011;35253;34.688;33.040;2024-03-06T03:12:12;14.32;;;1.98;;
49376;SDS011;35253;34.688;33.040;2024-03-06T03:14:41;10.35;;;1.60;;
49376;SDS011;35253;34.688;33.040;2024-03-06T03:17:08;12.43;;;2.17;;
49376;SDS011;35253;34.688;33.040;2024-03-06T03:19:34;13.93;;;2.53;;
49376;SDS011;35253;34.688;33.040;2024-03-06T03:22:00;10.07;;;2.80;;
49376;SDS011;35253;34.688;33.040;2024-03-06T03:24:29;11.37;;;2.07;;
49376;SDS011;35253;34.688;33.040;2024-03-06T03:26:55;10.57;;;2.08;;
49376;SDS011;35253;34.688;33.040;2024-03-06T03:29:21;7.20;;;2.63;;
49376;SDS011;35253;34.688;33.040;2024-03-06T03:31:47;16.60;;;1.80;;
49376;SDS011;35253;34.688;33.040;2024-03-06T03:34:13;9.07;;;1.38;;
49376;SDS011;35253;34.688;33.040;2024-03-06T03:36:42;12.77;;;1.88;;
49376;SDS011;35253;34.688;33.040;2024-03-06T03:39:11;13.48;;;1.70;;
49376;SDS011;35253;34.688;33.040;2024-03-06T03:41:45;15.60;;;1.73;;
49376;SDS011;35253;34.688;33.040;2024-03-06T03:44:16;13.90;;;1.80;;
49376;SDS011;35253;34.688;33.040;2024-03-06T03:46:42;12.80;;;2.20;;
49376;SDS011;35253;34.688;33.040;2024-03-06T03:49:08;9.73;;;1.60;;
49376;SDS011;35253;34.688;33.040;2024-03-06T03:51:35;13.00;;;3.63;;
49376;SDS011;35253;34.688;33.040;2024-03-06T03:54:01;19.70;;;3.55;;
49376;SDS011;35253;34.688;33.040;2024-03-06T03:56:27;9.60;;;2.20;;
49376;SDS011;35253;34.688;33.040;2024-03-06T03:58:53;12.27;;;2.85;;
49376;SDS011;35253;34.688;33.040;2024-03-06T04:01:18;10.77;;;2.38;;
49376;SDS011;35253;34.688;33.040;2024-03-06T04:03:45;14.32;;;2.90;;
49376;SDS011;35253;34.688;33.040;2024-03-06T04:06:11;12.07;;;1.85;;
49376;SDS011;35253;34.688;33.040;2024-03-06T04:08:37;8.15;;;1.60;;
49376;SDS011;35253;34.688;33.040;2024-03-06T04:11:03;6.40;;;1.67;;
49376;SDS011;35253;34.688;33.040;2024-03-06T04:13:29;13.43;;;2.25;;
49376;SDS011;35253;34.688;33.040;2024-03-06T04:15:55;11.48;;;2.00;;
49376;SDS011;35253;34.688;33.040;2024-03-06T04:18:21;8.65;;;2.25;;
49376;SDS011;35253;34.688;33.040;2024-03-06T04:20:46;12.77;;;3.25;;
49376;SDS011;35253;34.688;33.040;2024-03-06T04:23:12;11.63;;;1.70;;
49376;SDS011;35253;34.688;33.040;2024-03-06T04:25:38;14.55;;;2.78;;
49376;SDS011;35253;34.688;33.040;2024-03-06T04:28:06;14.23;;;2.25;;
49376;SDS011;35253;34.688;33.040;2024-03-06T04:30:35;4.47;;;1.73;;
49376;SDS011;35253;34.688;33.040;2024-03-06T04:33:00;9.70;;;1.90;;
49376;SDS011;35253;34.688;33.040;2024-03-06T04:35:26;7.93;;;2.30;;
49376;SDS011;35253;34.688;33.040;2024-03-06T04:37:51;13.85;;;1.88;;
49376;SDS011;35253;34.688;33.040;2024-03-06T04:40:17;8.90;;;1.67;;
49376;SDS011;35253;34.688;33.040;2024-03-06T04:42:48;9.70;;;2.35;;
49376;SDS011;35253;34.688;33.040;2024-03-06T04:45:14;8.15;;;2.00;;
49376;SDS011;35253;34.688;33.040;2024-03-06T04:47:41;12.10;;;2.10;;
49376;SDS011;35253;34.688;33.040;2024-03-06T04:50:11;19.58;;;2.35;;
49376;SDS011;35253;34.688;33.040;2024-03-06T04:52:39;16.38;;;2.92;;
49376;SDS011;35253;34.688;33.040;2024-03-06T04:55:06;11.52;;;2.38;;
49376;SDS011;35253;34.688;33.040;2024-03-06T04:57:32;12.77;;;1.98;;
49376;SDS011;35253;34.688;33.040;2024-03-06T04:59:58;11.75;;;2.28;;
49376;SDS011;35253;34.688;33.040;2024-03-06T05:02:24;11.98;;;2.78;;
49376;SDS011;35253;34.688;33.040;2024-03-06T05:04:52;13.60;;;2.75;;
49376;SDS011;35253;34.688;33.040;2024-03-06T05:07:18;7.85;;;2.17;;
49376;SDS011;35253;34.688;33.040;2024-03-06T05:09:43;8.93;;;2.22;;
49376;SDS011;35253;34.688;33.040;2024-03-06T05:12:09;13.07;;;2.08;;
49376;SDS011;35253;34.688;33.040;2024-03-06T05:14:35;17.85;;;4.28;;
49376;SDS011;35253;34.688;33.040;2024-03-06T05:17:01;10.90;;;2.42;;
49376;SDS011;35253;34.688;33.040;2024-03-06T05:19:27;16.13;;;2.28;;
49376;SDS011;35253;34.688;33.040;2024-03-06T05:21:57;9.32;;;1.85;;
49376;SDS011;35253;34.688;33.040;2024-03-06T05:24:23;9.15;;;1.83;;
49376;SDS011;35253;34.688;33.040;2024-03-06T05:26:49;14.07;;;2.25;;
49376;SDS011;35253;34.688;33.040;2024-03-06T05:29:16;15.15;;;3.20;;
49376;SDS011;35253;34.688;33.040;2024-03-06T05:31:41;10.40;;;1.65;;
49376;SDS011;35253;34.688;33.040;2024-03-06T05:34:07;11.80;;;1.80;;
49376;SDS011;35253;34.688;33.040;2024-03-06T05:36:33;11.85;;;2.38;;
49376;SDS011;35253;34.688;33.040;2024-03-06T05:38:58;12.20;;;1.45;;
49376;SDS011;35253;34.688;33.040;2024-03-06T05:41:24;13.82;;;2.80;;
49376;SDS011;35253;34.688;33.040;2024-03-06T05:43:50;44.80;;;6.63;;
49376;SDS011;35253;34.688;33.040;2024-03-06T05:46:15;15.63;;;3.05;;
49376;SDS011;35253;34.688;33.040;2024-03-06T05:48:41;17.88;;;2.30;;
49376;SDS011;35253;34.688;33.040;2024-03-06T05:51:07;20.58;;;4.03;;
49376;SDS011;35253;34.688;33.040;2024-03-06T05:53:36;21.67;;;3.63;;
49376;SDS011;35253;34.688;33.040;2024-03-06T05:56:06;14.13;;;3.10;;
49376;SDS011;35253;34.688;33.040;2024-03-06T05:58:32;13.45;;;2.47;;
49376;SDS011;35253;34.688;33.040;2024-03-06T06:01:00;8.80;;;2.38;;
49376;SDS011;35253;34.688;33.040;2024-03-06T06:03:31;26.20;;;4.55;;
49376;SDS011;35253;34.688;33.040;2024-03-06T06:05:57;14.43;;;3.38;;
49376;SDS011;35253;34.688;33.040;2024-03-06T06:08:24;22.17;;;4.30;;
49376;SDS011;35253;34.688;33.040;2024-03-06T06:10:49;19.75;;;5.82;;
49376;SDS011;35253;34.688;33.040;2024-03-06T06:13:17;17.27;;;4.93;;
49376;SDS011;35253;34.688;33.040;2024-03-06T06:15:43;21.98;;;4.90;;
49376;SDS011;35253;34.688;33.040;2024-03-06T06:18:09;22.67;;;5.82;;
49376;SDS011;35253;34.688;33.040;2024-03-06T06:20:35;13.88;;;3.38;;
49376;SDS011;35253;34.688;33.040;2024-03-06T06:23:01;23.65;;;4.10;;
49376;SDS011;35253;34.688;33.040;2024-03-06T06:25:26;14.93;;;2.70;;
49376;SDS011;35253;34.688;33.040;2024-03-06T06:27:52;14.18;;;2.33;;
49376;SDS011;35253;34.688;33.040;2024-03-06T06:30:18;11.68;;;2.35;;
49376;SDS011;35253;34.688;33.040;2024-03-06T06:32:44;16.63;;;3.22;;
49376;SDS011;35253;34.688;33.040;2024-03-06T06:35:10;4.57;;;1.58;;
49376;SDS011;35253;34.688;33.040;2024-03-06T06:37:39;9.88;;;1.65;;
49376;SDS011;35253;34.688;33.040;2024-03-06T06:40:05;8.60;;;1.95;;
49376;SDS011;35253;34.688;33.040;2024-03-06T06:42:35;6.78;;;1.73;;
49376;SDS011;35253;34.688;33.040;2024-03-06T06:45:01;11.45;;;2.67;;
49376;SDS011;35253;34.688;33.040;2024-03-06T06:47:28;10.40;;;2.38;;
49376;SDS011;35253;34.688;33.040;2024-03-06T06:49:54;15.43;;;2.92;;
49376;SDS011;35253;34.688;33.040;2024-03-06T06:52:19;10.60;;;3.58;;
49376;SDS011;35253;34.688;33.040;2024-03-06T06:54:46;9.07;;;1.50;;
49376;SDS011;35253;34.688;33.040;2024-03-06T06:57:11;10.32;;;3.30;;
49376;SDS011;35253;34.688;33.040;2024-03-06T06:59:37;5.95;;;1.60;;
49376;SDS011;35253;34.688;33.040;2024-03-06T07:02:03;9.93;;;2.60;;
49376;SDS011;35253;34.688;33.040;2024-03-06T07:04:28;8.30;;;1.52;;
49376;SDS011;35253;34.688;33.040;2024-03-06T07:06:54;10.52;;;2.92;;
49376;SDS011;35253;34.688;33.040;2024-03-06T07:09:20;9.27;;;1.88;;
49376;SDS011;35253;34.688;33.040;2024-03-06T07:11:45;9.02;;;1.60;;
49376;SDS011;35253;34.688;33.040;2024-03-06T07:14:14;8.18;;;1.92;;
49376;SDS011;35253;34.688;33.040;2024-03-06T07:16:46;15.02;;;2.67;;
49376;SDS011;35253;34.688;33.040;2024-03-06T07:19:12;14.07;;;2.53;;
49376;SDS011;35253;34.688;33.040;2024-03-06T07:21:38;11.18;;;2.47;;
49376;SDS011;35253;34.688;33.040;2024-03-06T07:24:04;12.50;;;2.70;;
49376;SDS011;35253;34.688;33.040;2024-03-06T07:26:33;17.88;;;2.83;;
49376;SDS011;35253;34.688;33.040;2024-03-06T07:28:59;15.68;;;3.85;;
49376;SDS011;35253;34.688;33.040;2024-03-06T07:31:25;11.73;;;2.45;;
49376;SDS011;35253;34.688;33.040;2024-03-06T07:33:51;10.80;;;2.45;;
49376;SDS011;35253;34.688;33.040;2024-03-06T07:36:17;13.13;;;5.00;;
49376;SDS011;35253;34.688;33.040;2024-03-06T07:38:42;12.85;;;3.05;;
49376;SDS011;35253;34.688;33.040;2024-03-06T07:41:08;12.00;;;2.72;;
49376;SDS011;35253;34.688;33.040;2024-03-06T07:43:35;13.32;;;4.22;;
49376;SDS011;35253;34.688;33.040;2024-03-06T07:46:00;10.98;;;2.28;;
49376;SDS011;35253;34.688;33.040;2024-03-06T07:48:26;21.58;;;4.53;;
49376;SDS011;35253;34.688;33.040;2024-03-06T07:50:52;17.90;;;6.55;;
49376;SDS011;35253;34.688;33.040;2024-03-06T07:53:17;13.20;;;2.33;;
49376;SDS011;35253;34.688;33.040;2024-03-06T07:55:43;11.10;;;2.80;;
49376;SDS011;35253;34.688;33.040;2024-03-06T07:58:09;23.92;;;4.90;;
49376;SDS011;35253;34.688;33.040;2024-03-06T08:00:35;15.40;;;3.88;;
49376;SDS011;35253;34.688;33.040;2024-03-06T08:03:01;18.38;;;3.92;;
49376;SDS011;35253;34.688;33.040;2024-03-06T08:05:28;13.95;;;2.90;;
49376;SDS011;35253;34.688;33.040;2024-03-06T08:07:53;12.38;;;3.17;;
49376;SDS011;35253;34.688;33.040;2024-03-06T08:10:19;16.20;;;3.53;;
49376;SDS011;35253;34.688;33.040;2024-03-06T08:12:45;21.67;;;5.20;;
49376;SDS011;35253;34.688;33.040;2024-03-06T08:15:13;24.38;;;4.13;;
49376;SDS011;35253;34.688;33.040;2024-03-06T08:17:40;11.98;;;3.63;;
49376;SDS011;35253;34.688;33.040;2024-03-06T08:20:07;16.13;;;4.57;;
49376;SDS011;35253;34.688;33.040;2024-03-06T08:22:34;16.63;;;5.55;;
49376;SDS011;35253;34.688;33.040;2024-03-06T08:25:12;10.20;;;3.22;;
49376;SDS011;35253;34.688;33.040;2024-03-06T08:27:39;11.07;;;3.03;;
49376;SDS011;35253;34.688;33.040;2024-03-06T08:30:06;15.65;;;5.05;;
49376;SDS011;35253;34.688;33.040;2024-03-06T08:32:33;20.38;;;3.40;;
49376;SDS011;35253;34.688;33.040;2024-03-06T08:35:02;17.15;;;3.47;;
49376;SDS011;35253;34.688;33.040;2024-03-06T08:37:36;13.82;;;2.97;;
49376;SDS011;35253;34.688;33.040;2024-03-06T08:40:05;19.13;;;5.20;;
49376;SDS011;35253;34.688;33.040;2024-03-06T08:42:45;15.10;;;3.58;;
49376;SDS011;35253;34.688;33.040;2024-03-06T08:45:14;17.95;;;5.47;;
49376;SDS011;35253;34.688;33.040;2024-03-06T08:47:40;13.40;;;5.22;;
49376;SDS011;35253;34.688;33.040;2024-03-06T08:50:06;20.98;;;3.55;;
49376;SDS011;35253;34.688;33.040;2024-03-06T08:52:35;19.45;;;3.45;;
49376;SDS011;35253;34.688;33.040;2024-03-06T08:55:01;18.92;;;4.93;;
49376;SDS011;35253;34.688;33.040;2024-03-06T08:57:31;16.17;;;4.80;;
49376;SDS011;35253;34.688;33.040;2024-03-06T08:59:58;27.50;;;6.25;;
49376;SDS011;35253;34.688;33.040;2024-03-06T09:02:24;14.95;;;3.47;;
49376;SDS011;35253;34.688;33.040;2024-03-06T09:04:50;16.00;;;2.88;;
49376;SDS011;35253;34.688;33.040;2024-03-06T09:07:19;15.93;;;2.88;;
49376;SDS011;35253;34.688;33.040;2024-03-06T09:09:49;20.77;;;4.63;;
49376;SDS011;35253;34.688;33.040;2024-03-06T09:12:17;15.93;;;2.95;;
49376;SDS011;35253;34.688;33.040;2024-03-06T09:14:43;20.02;;;3.33;;
49376;SDS011;35253;34.688;33.040;2024-03-06T09:17:10;16.67;;;3.17;;
49376;SDS011;35253;34.688;33.040;2024-03-06T09:19:38;13.80;;;3.00;;
49376;SDS011;35253;34.688;33.040;2024-03-06T09:22:04;10.13;;;3.22;;
49376;SDS011;35253;34.688;33.040;2024-03-06T09:24:29;14.48;;;4.63;;
49376;SDS011;35253;34.688;33.040;2024-03-06T09:26:55;20.95;;;4.75;;
49376;SDS011;35253;34.688;33.040;2024-03-06T09:29:21;15.10;;;3.42;;
49376;SDS011;35253;34.688;33.040;2024-03-06T09:31:47;11.20;;;3.55;;
49376;SDS011;35253;34.688;33.040;2024-03-06T09:34:13;15.15;;;4.82;;
49376;SDS011;35253;34.688;33.040;2024-03-06T09:36:45;12.77;;;3.15;;
49376;SDS011;35253;34.688;33.040;2024-03-06T09:39:13;11.50;;;3.20;;
49376;SDS011;35253;34.688;33.040;2024-03-06T09:41:44;17.73;;;4.50;;
49376;SDS011;35253;34.688;33.040;2024-03-06T09:44:11;13.30;;;4.20;;
49376;SDS011;35253;34.688;33.040;2024-03-06T09:46:39;6.45;;;1.90;;
49376;SDS011;35253;34.688;33.040;2024-03-06T09:49:11;9.82;;;3.00;;
49376;SDS011;35253;34.688;33.040;2024-03-06T09:51:39;8.65;;;2.60;;
49376;SDS011;35253;34.688;33.040;2024-03-06T09:54:12;10.70;;;3.47;;
49376;SDS011;35253;34.688;33.040;2024-03-06T09:56:42;8.82;;;3.78;;
49376;SDS011;35253;34.688;33.040;2024-03-06T09:59:10;14.18;;;5.07;;
49376;SDS011;35253;34.688;33.040;2024-03-06T10:04:21;19.17;;;4.32;;
49376;SDS011;35253;34.688;33.040;2024-03-06T10:06:49;16.60;;;3.42;;
49376;SDS011;35253;34.688;33.040;2024-03-06T10:09:18;12.55;;;4.13;;
49376;SDS011;35253;34.688;33.040;2024-03-06T10:11:44;14.30;;;3.75;;
49376;SDS011;35253;34.688;33.040;2024-03-06T10:14:10;18.33;;;3.97;;
49376;SDS011;35253;34.688;33.040;2024-03-06T10:16:37;12.65;;;2.15;;
49376;SDS011;35253;34.688;33.040;2024-03-06T10:19:36;17.45;;;5.15;;
49376;SDS011;35253;34.688;33.040;2024-03-06T10:21:55;12.00;;;4.32;;
49376;SDS011;35253;34.688;33.040;2024-03-06T10:24:26;15.43;;;4.53;;
49376;SDS011;35253;34.688;33.040;2024-03-06T10:26:57;21.27;;;4.40;;
49376;SDS011;35253;34.688;33.040;2024-03-06T10:34:22;16.50;;;3.85;;
49376;SDS011;35253;34.688;33.040;2024-03-06T10:36:52;16.73;;;4.00;;
49376;SDS011;35253;34.688;33.040;2024-03-06T10:41:45;13.75;;;2.75;;
49376;SDS011;35253;34.688;33.040;2024-03-06T10:44:16;18.90;;;4.18;;
49376;SDS011;35253;34.688;33.040;2024-03-06T10:46:58;11.15;;;2.25;;
49376;SDS011;35253;34.688;33.040;2024-03-06T10:49:26;19.45;;;5.82;;
49376;SDS011;35253;34.688;33.040;2024-03-06T10:51:58;13.90;;;3.10;;
49376;SDS011;35253;34.688;33.040;2024-03-06T10:56:59;10.38;;;2.67;;
49376;SDS011;35253;34.688;33.040;2024-03-06T10:59:26;12.93;;;4.88;;
49376;SDS011;35253;34.688;33.040;2024-03-06T11:01:56;11.77;;;3.05;;
49376;SDS011;35253;34.688;33.040;2024-03-06T11:04:26;8.18;;;2.83;;
49376;SDS011;35253;34.688;33.040;2024-03-06T11:06:59;5.95;;;1.95;;
49376;SDS011;35253;34.688;33.040;2024-03-06T11:09:32;14.52;;;3.63;;
49376;SDS011;35253;34.688;33.040;2024-03-06T11:12:01;16.58;;;3.63;;
49376;SDS011;35253;34.688;33.040;2024-03-06T11:14:30;15.90;;;4.15;;
49376;SDS011;35253;34.688;33.040;2024-03-06T11:16:57;10.60;;;2.10;;
49376;SDS011;35253;34.688;33.040;2024-03-06T11:28:12;8.25;;;3.42;;
49376;SDS011;35253;34.688;33.040;2024-03-06T11:30:45;11.88;;;3.22;;
49376;SDS011;35253;34.688;33.040;2024-03-06T11:33:12;9.02;;;3.85;;
49376;SDS011;35253;34.688;33.040;2024-03-06T11:35:41;16.63;;;6.03;;
49376;SDS011;35253;34.688;33.040;2024-03-06T11:38:16;12.57;;;4.68;;
49376;SDS011;35253;34.688;33.040;2024-03-06T11:40:48;11.52;;;3.50;;
49376;SDS011;35253;34.688;33.040;2024-03-06T11:43:26;10.50;;;2.38;;
49376;SDS011;35253;34.688;33.040;2024-03-06T11:45:52;14.88;;;4.80;;
49376;SDS011;35253;34.688;33.040;2024-03-06T11:48:18;24.05;;;9.02;;
49376;SDS011;35253;34.688;33.040;2024-03-06T11:50:47;16.77;;;7.93;;
49376;SDS011;35253;34.688;33.040;2024-03-06T11:53:13;10.95;;;4.22;;
49376;SDS011;35253;34.688;33.040;2024-03-06T11:55:39;16.80;;;5.28;;
49376;SDS011;35253;34.688;33.040;2024-03-06T11:58:05;20.00;;;4.95;;
49376;SDS011;35253;34.688;33.040;2024-03-06T12:00:33;10.88;;;3.38;;
49376;SDS011;35253;34.688;33.040;2024-03-06T12:02:58;15.18;;;5.22;;
49376;SDS011;35253;34.688;33.040;2024-03-06T12:05:24;12.45;;;5.55;;
49376;SDS011;35253;34.688;33.040;2024-03-06T12:07:52;17.48;;;4.47;;
49376;SDS011;35253;34.688;33.040;2024-03-06T12:10:17;13.48;;;2.90;;
49376;SDS011;35253;34.688;33.040;2024-03-06T12:12:44;24.67;;;8.52;;
49376;SDS011;35253;34.688;33.040;2024-03-06T12:15:10;14.55;;;4.32;;
49376;SDS011;35253;34.688;33.040;2024-03-06T12:17:49;13.13;;;2.33;;
49376;SDS011;35253;34.688;33.040;2024-03-06T12:20:17;10.45;;;2.60;;
49376;SDS011;35253;34.688;33.040;2024-03-06T12:22:49;10.73;;;2.00;;
49376;SDS011;35253;34.688;33.040;2024-03-06T12:25:20;10.85;;;3.15;;
49376;SDS011;35253;34.688;33.040;2024-03-06T12:27:47;14.55;;;5.72;;
49376;SDS011;35253;34.688;33.040;2024-03-06T12:30:16;22.13;;;8.20;;
49376;SDS011;35253;34.688;33.040;2024-03-06T12:32:43;10.65;;;4.22;;
49376;SDS011;35253;34.688;33.040;2024-03-06T12:35:09;14.27;;;4.40;;
49376;SDS011;35253;34.688;33.040;2024-03-06T12:37:35;11.20;;;2.67;;
49376;SDS011;35253;34.688;33.040;2024-03-06T12:40:02;6.07;;;2.42;;
49376;SDS011;35253;34.688;33.040;2024-03-06T12:42:30;14.98;;;3.67;;
49376;SDS011;35253;34.688;33.040;2024-03-06T12:44:55;17.70;;;4.03;;
49376;SDS011;35253;34.688;33.040;2024-03-06T12:47:22;13.02;;;3.85;;
49376;SDS011;35253;34.688;33.040;2024-03-06T12:49:47;11.25;;;4.47;;
49376;SDS011;35253;34.688;33.040;2024-03-06T12:52:13;21.48;;;6.07;;
49376;SDS011;35253;34.688;33.040;2024-03-06T12:54:39;14.02;;;4.78;;
49376;SDS011;35253;34.688;33.040;2024-03-06T12:57:05;20.70;;;6.78;;
49376;SDS011;35253;34.688;33.040;2024-03-06T12:59:30;14.38;;;3.30;;
49376;SDS011;35253;34.688;33.040;2024-03-06T13:01:56;14.00;;;3.55;;
49376;SDS011;35253;34.688;33.040;2024-03-06T13:04:22;17.67;;;4.90;;
49376;SDS011;35253;34.688;33.040;2024-03-06T13:06:48;10.60;;;2.05;;
49376;SDS011;35253;34.688;33.040;2024-03-06T13:09:13;14.07;;;4.80;;
49376;SDS011;35253;34.688;33.040;2024-03-06T13:11:39;7.22;;;1.85;;
49376;SDS011;35253;34.688;33.040;2024-03-06T13:14:07;10.30;;;1.90;;
49376;SDS011;35253;34.688;33.040;2024-03-06T13:16:35;5.53;;;2.42;;
49376;SDS011;35253;34.688;33.040;2024-03-06T13:19:01;14.27;;;4.38;;
49376;SDS011;35253;34.688;33.040;2024-03-06T13:21:28;11.50;;;4.30;;
49376;SDS011;35253;34.688;33.040;2024-03-06T13:23:54;6.05;;;2.17;;
49376;SDS011;35253;34.688;33.040;2024-03-06T13:26:20;5.47;;;1.63;;
49376;SDS011;35253;34.688;33.040;2024-03-06T13:28:45;5.95;;;2.58;;
49376;SDS011;35253;34.688;33.040;2024-03-06T13:31:11;13.75;;;3.55;;
49376;SDS011;35253;34.688;33.040;2024-03-06T13:33:37;13.50;;;4.63;;
49376;SDS011;35253;34.688;33.040;2024-03-06T13:36:03;9.50;;;3.15;;
49376;SDS011;35253;34.688;33.040;2024-03-06T13:38:28;11.60;;;3.08;;
49376;SDS011;35253;34.688;33.040;2024-03-06T13:40:54;13.57;;;3.75;;
49376;SDS011;35253;34.688;33.040;2024-03-06T13:43:20;12.40;;;3.00;;
49376;SDS011;35253;34.688;33.040;2024-03-06T13:45:49;9.60;;;2.10;;
49376;SDS011;35253;34.688;33.040;2024-03-06T13:48:15;7.75;;;2.38;;
49376;SDS011;35253;34.688;33.040;2024-03-06T13:50:42;19.38;;;6.60;;
49376;SDS011;35253;34.688;33.040;2024-03-06T13:53:09;10.55;;;2.60;;
49376;SDS011;35253;34.688;33.040;2024-03-06T13:55:35;4.65;;;1.65;;
49376;SDS011;35253;34.688;33.040;2024-03-06T13:58:01;10.63;;;3.15;;
49376;SDS011;35253;34.688;33.040;2024-03-06T14:00:27;8.68;;;1.75;;
49376;SDS011;35253;34.688;33.040;2024-03-06T14:02:53;6.07;;;2.15;;
49376;SDS011;35253;34.688;33.040;2024-03-06T14:05:19;12.60;;;4.25;;
49376;SDS011;35253;34.688;33.040;2024-03-06T14:07:50;12.02;;;5.05;;
49376;SDS011;35253;34.688;33.040;2024-03-06T14:10:16;25.77;;;8.55;;
49376;SDS011;35253;34.688;33.040;2024-03-06T14:12:44;11.60;;;4.03;;
49376;SDS011;35253;34.688;33.040;2024-03-06T14:15:10;17.45;;;7.60;;
49376;SDS011;35253;34.688;33.040;2024-03-06T14:17:37;9.02;;;2.67;;
49376;SDS011;35253;34.688;33.040;2024-03-06T14:20:03;3.92;;;1.10;;
49376;SDS011;35253;34.688;33.040;2024-03-06T14:22:29;11.15;;;2.15;;
49376;SDS011;35253;34.688;33.040;2024-03-06T14:24:55;4.22;;;1.55;;
49376;SDS011;35253;34.688;33.040;2024-03-06T14:27:21;5.35;;;1.20;;
49376;SDS011;35253;34.688;33.040;2024-03-06T14:29:47;4.88;;;1.70;;
49376;SDS011;35253;34.688;33.040;2024-03-06T14:32:14;5.63;;;0.93;;
49376;SDS011;35253;34.688;33.040;2024-03-06T14:34:40;6.95;;;3.20;;
49376;SDS011;35253;34.688;33.040;2024-03-06T14:37:08;18.98;;;7.53;;
49376;SDS011;35253;34.688;33.040;2024-03-06T14:39:34;4.28;;;1.17;;
49376;SDS011;35253;34.688;33.040;2024-03-06T14:42:00;6.45;;;1.42;;
49376;SDS011;35253;34.688;33.040;2024-03-06T14:44:25;7.10;;;1.75;;